createdAt,value
2018-06-29T00:02:14.157Z,3.30
2018-06-29T00:04:44.696Z,3.83
2018-06-29T00:07:15.614Z,3.07
2018-06-29T00:09:45.885Z,3.90
2018-06-29T00:12:17.079Z,3.17
2018-06-29T00:14:49.202Z,3.87
2018-06-29T00:17:18.572Z,3.60
2018-06-29T00:19:49.553Z,3.47
2018-06-29T00:22:21.409Z,3.80
2018-06-29T00:24:52.800Z,3.60
2018-06-29T00:27:24.291Z,3.73
2018-06-29T00:29:53.456Z,3.67
2018-06-29T00:32:24.045Z,4.77
2018-06-29T00:34:54.569Z,3.80
2018-06-29T00:37:24.486Z,3.53
2018-06-29T00:39:55.334Z,3.43
2018-06-29T00:42:27.029Z,3.50
2018-06-29T00:44:58.822Z,3.43
2018-06-29T00:47:28.317Z,4.30
2018-06-29T00:49:58.767Z,3.70
2018-06-29T00:52:28.688Z,3.57
2018-06-29T00:55:00.611Z,3.87
2018-06-29T00:57:31.665Z,3.80
2018-06-29T01:00:04.556Z,3.50
2018-06-29T01:02:33.749Z,3.50
2018-06-29T01:05:04.316Z,3.40
2018-06-29T01:07:35.053Z,4.30
2018-06-29T01:10:04.975Z,3.53
2018-06-29T01:12:34.119Z,3.27
2018-06-29T01:15:04.145Z,2.97
2018-06-29T01:17:35.196Z,3.87
2018-06-29T01:20:04.527Z,3.40
2018-06-29T01:22:36.477Z,3.47
2018-06-29T01:25:06.469Z,3.57
2018-06-29T01:27:38.123Z,3.50
2018-06-29T01:30:08.191Z,3.03
2018-06-29T01:32:38.066Z,2.93
2018-06-29T01:35:08.337Z,3.33
2018-06-29T01:37:37.555Z,3.97
2018-06-29T01:40:08.234Z,3.23
2018-06-29T01:42:38.964Z,3.80
2018-06-29T01:45:11.541Z,3.07
2018-06-29T01:47:42.969Z,3.37
2018-06-29T01:50:12.647Z,3.70
2018-06-29T01:52:43.794Z,3.53
2018-06-29T01:55:14.079Z,3.50
2018-06-29T01:57:44.005Z,3.67
2018-06-29T02:00:13.126Z,3.60
2018-06-29T02:02:43.678Z,3.53
2018-06-29T02:05:15.305Z,3.43
2018-06-29T02:07:46.148Z,4.00
2018-06-29T02:10:15.673Z,3.97
2018-06-29T02:12:47.466Z,3.97
2018-06-29T02:15:18.886Z,5.13
2018-06-29T02:17:52.836Z,4.00
2018-06-29T02:20:22.919Z,3.80
2018-06-29T02:22:52.295Z,3.73
2018-06-29T02:25:22.246Z,4.07
2018-06-29T02:27:53.661Z,3.70
2018-06-29T02:30:23.889Z,4.00
2018-06-29T02:32:54.245Z,3.50
2018-06-29T02:35:23.436Z,3.30
2018-06-29T02:37:54.946Z,3.90
2018-06-29T02:40:24.112Z,3.60
2018-06-29T02:42:54.329Z,3.67
2018-06-29T02:45:24.493Z,3.33
2018-06-29T02:47:55.033Z,3.57
2018-06-29T02:50:25.082Z,3.13
2018-06-29T02:52:56.349Z,3.80
2018-06-29T02:55:26.888Z,3.67
2018-06-29T02:57:56.751Z,3.50
2018-06-29T03:00:27.708Z,3.47
2018-06-29T03:02:58.217Z,3.87
2018-06-29T03:05:29.937Z,3.57
2018-06-29T03:08:00.965Z,3.33
2018-06-29T03:10:30.221Z,3.97
2018-06-29T03:13:00.966Z,3.47
2018-06-29T03:15:30.815Z,4.10
2018-06-29T03:18:01.115Z,3.67
2018-06-29T03:20:33.512Z,3.40
2018-06-29T03:23:03.727Z,3.90
2018-06-29T03:25:35.954Z,3.90
2018-06-29T03:28:05.944Z,3.20
2018-06-29T03:30:37.485Z,4.30
2018-06-29T03:33:08.705Z,3.23
2018-06-29T03:35:38.979Z,3.13
2018-06-29T03:38:10.960Z,3.30
2018-06-29T03:40:41.766Z,13.10
2018-06-29T03:43:12.976Z,11.23
2018-06-29T03:45:43.176Z,6.30
2018-06-29T03:48:13.068Z,5.77
2018-06-29T03:50:44.592Z,4.60
2018-06-29T03:53:14.139Z,3.03
2018-06-29T03:55:44.721Z,3.50
2018-06-29T03:58:15.130Z,3.17
2018-06-29T04:00:46.990Z,3.13
2018-06-29T04:03:18.922Z,4.00
2018-06-29T04:05:49.396Z,4.40
2018-06-29T04:08:20.486Z,3.87
2018-06-29T04:10:50.442Z,2.93
2018-06-29T04:13:21.978Z,2.67
2018-06-29T04:15:53.253Z,3.27
2018-06-29T04:18:23.870Z,3.67
2018-06-29T04:20:55.261Z,2.80
2018-06-29T04:23:24.736Z,2.70
2018-06-29T04:25:54.784Z,2.70
2018-06-29T04:28:25.948Z,2.93
2018-06-29T04:30:57.893Z,2.90
2018-06-29T04:33:28.005Z,3.50
2018-06-29T04:35:59.259Z,2.70
2018-06-29T04:38:30.852Z,3.33
2018-06-29T04:41:01.602Z,4.17
2018-06-29T04:43:33.178Z,4.40
2018-06-29T04:46:02.963Z,2.50
2018-06-29T04:48:33.275Z,2.10
2018-06-29T04:51:02.522Z,2.70
2018-06-29T04:53:33.171Z,2.13
2018-06-29T04:56:04.508Z,2.30
2018-06-29T04:58:36.690Z,2.23
2018-06-29T05:01:06.628Z,1.70
2018-06-29T05:03:38.574Z,2.50
2018-06-29T05:06:08.543Z,1.90
2018-06-29T05:08:40.088Z,2.70
2018-06-29T05:11:10.288Z,1.67
2018-06-29T05:13:39.745Z,1.43
2018-06-29T05:16:12.109Z,1.60
2018-06-29T05:18:41.765Z,1.50
2018-06-29T05:21:13.033Z,1.77
2018-06-29T05:23:43.262Z,1.77
2018-06-29T05:26:15.380Z,1.50
2018-06-29T05:28:45.305Z,1.73
2018-06-29T05:31:14.759Z,1.27
2018-06-29T05:33:47.159Z,1.40
2018-06-29T05:36:16.788Z,1.70
2018-06-29T05:38:46.236Z,1.80
2018-06-29T05:41:16.451Z,1.70
2018-06-29T05:43:47.419Z,18.70
2018-06-29T05:46:20.291Z,2.17
2018-06-29T05:48:56.120Z,1.20
2018-06-29T05:51:25.296Z,1.30
2018-06-29T05:53:55.910Z,1.50
2018-06-29T05:56:27.892Z,1.67
2018-06-29T05:58:59.023Z,1.40
2018-06-29T06:01:28.300Z,1.60
2018-06-29T06:04:00.938Z,1.43
2018-06-29T06:06:30.279Z,1.30
2018-06-29T06:09:02.455Z,1.13
2018-06-29T06:11:34.098Z,0.90
2018-06-29T06:14:05.920Z,1.10
2018-06-29T06:16:37.670Z,1.70
2018-06-29T06:19:24.325Z,1.63
2018-06-29T06:21:54.683Z,1.00
2018-06-29T06:24:26.780Z,0.80
2018-06-29T06:26:56.991Z,1.10
2018-06-29T06:29:27.447Z,1.30
2018-06-29T06:31:57.740Z,1.20
2018-06-29T06:34:28.140Z,1.40
2018-06-29T06:36:59.107Z,1.17
2018-06-29T06:39:28.765Z,0.80
2018-06-29T06:42:00.910Z,1.07
2018-06-29T06:44:31.428Z,1.00
2018-06-29T06:47:02.749Z,1.20
2018-06-29T06:49:33.813Z,0.90
2018-06-29T06:52:03.379Z,0.90
2018-06-29T06:54:34.206Z,1.13
2018-06-29T06:57:04.710Z,0.90
2018-06-29T06:59:35.727Z,1.07
2018-06-29T07:02:08.158Z,1.27
2018-06-29T07:04:39.081Z,1.13
2018-06-29T07:07:08.214Z,0.90
2018-06-29T07:09:38.571Z,0.70
2018-06-29T07:12:10.574Z,0.80
2018-06-29T07:14:39.973Z,1.07
2018-06-29T07:17:10.425Z,1.10
2018-06-29T07:19:41.848Z,0.80
2018-06-29T07:22:12.748Z,0.83
2018-06-29T07:24:44.714Z,0.87
2018-06-29T07:27:14.043Z,0.60
2018-06-29T07:29:43.241Z,0.90
2018-06-29T07:32:14.145Z,1.30
2018-06-29T07:34:44.858Z,0.50
2018-06-29T07:37:17.297Z,0.60
2018-06-29T07:39:46.629Z,0.50
2018-06-29T07:42:17.637Z,0.87
2018-06-29T07:44:46.871Z,0.60
2018-06-29T07:47:18.458Z,0.73
2018-06-29T07:49:49.450Z,0.80
2018-06-29T07:52:18.693Z,0.60
2018-06-29T07:54:49.588Z,0.50
2018-06-29T07:57:19.553Z,0.67
2018-06-29T07:59:49.382Z,0.60
2018-06-29T08:02:18.524Z,0.57
2018-06-29T08:04:47.667Z,0.80
2018-06-29T08:07:16.822Z,0.62
2018-06-29T08:09:45.961Z,0.60
2018-06-29T08:12:15.084Z,0.82
2018-06-29T08:14:44.439Z,0.70
2018-06-29T08:17:13.654Z,0.90
2018-06-29T08:19:42.787Z,0.70
2018-06-29T08:22:13.669Z,0.78
2018-06-29T08:25:00.189Z,1.17
2018-06-29T08:27:29.337Z,0.95
2018-06-29T08:29:58.488Z,1.02
2018-06-29T08:32:27.669Z,1.15
2018-06-29T08:34:56.825Z,0.57
2018-06-29T08:37:25.998Z,0.70
2018-06-29T08:39:55.156Z,0.50
2018-06-29T08:42:24.379Z,0.72
2018-06-29T08:44:53.562Z,0.50
2018-06-29T08:47:22.720Z,0.60
2018-06-29T08:49:51.880Z,0.90
2018-06-29T08:52:21.308Z,0.78
2018-06-29T08:54:50.472Z,2.37
2018-06-29T08:57:19.624Z,0.60
2018-06-29T08:59:48.807Z,0.50
2018-06-29T09:02:17.935Z,0.60
2018-06-29T09:04:47.083Z,0.72
2018-06-29T09:07:16.238Z,2.07
2018-06-29T09:09:45.333Z,0.60
2018-06-29T09:12:14.520Z,0.60
2018-06-29T09:14:43.662Z,1.10
2018-06-29T09:17:12.851Z,0.70
2018-06-29T09:19:41.954Z,0.68
2018-06-29T09:22:11.104Z,0.60
2018-06-29T09:24:40.270Z,0.60
2018-06-29T09:27:09.431Z,0.50
2018-06-29T09:29:38.591Z,1.02
2018-06-29T09:32:07.733Z,1.20
2018-06-29T09:34:36.919Z,0.50
2018-06-29T09:37:06.202Z,3.10
2018-06-29T09:39:35.344Z,0.98
2018-06-29T09:42:04.522Z,0.60
2018-06-29T09:44:33.650Z,0.60
2018-06-29T09:47:02.862Z,0.70
2018-06-29T09:49:32.101Z,0.57
2018-06-29T09:52:01.283Z,0.60
2018-06-29T09:54:30.558Z,0.70
2018-06-29T09:56:59.839Z,1.80
2018-06-29T09:59:29.066Z,0.67
2018-06-29T10:01:58.215Z,1.80
2018-06-29T10:04:27.535Z,0.60
2018-06-29T10:06:57.249Z,0.80
2018-06-29T10:09:26.387Z,0.80
2018-06-29T10:11:55.521Z,0.60
2018-06-29T10:14:24.706Z,0.60
2018-06-29T10:16:53.872Z,1.20
2018-06-29T10:19:22.997Z,0.90
2018-06-29T10:21:52.125Z,1.23
2018-06-29T10:24:21.336Z,0.70
2018-06-29T10:26:50.438Z,0.67
2018-06-29T10:29:19.600Z,0.83
2018-06-29T10:31:48.821Z,1.77
2018-06-29T10:34:18.101Z,0.93
2018-06-29T10:36:47.306Z,0.90
2018-06-29T10:39:16.787Z,0.80
2018-06-29T10:41:45.898Z,1.07
2018-06-29T10:44:14.993Z,1.20
2018-06-29T10:46:44.121Z,0.90
2018-06-29T10:49:13.299Z,1.23
2018-06-29T10:51:42.462Z,1.20
2018-06-29T10:54:11.655Z,1.20
2018-06-29T10:56:40.818Z,1.00
2018-06-29T10:59:09.947Z,0.80
2018-06-29T11:01:39.073Z,1.00
2018-06-29T11:04:08.198Z,1.03
2018-06-29T11:06:37.351Z,0.80
2018-06-29T11:09:09.566Z,0.87
2018-06-29T11:11:38.667Z,1.00
2018-06-29T11:14:08.634Z,1.30
2018-06-29T11:16:37.902Z,1.50
2018-06-29T11:19:07.335Z,1.07
2018-06-29T11:21:36.492Z,1.30
2018-06-29T11:24:05.644Z,1.23
2018-06-29T11:26:34.782Z,1.30
2018-06-29T11:29:03.893Z,1.00
2018-06-29T11:31:33.013Z,1.30
2018-06-29T11:34:02.111Z,1.20
2018-06-29T11:36:31.228Z,1.97
2018-06-29T11:39:00.363Z,1.30
2018-06-29T11:41:29.637Z,1.47
2018-06-29T11:44:05.482Z,1.20
2018-06-29T11:46:34.632Z,1.70
2018-06-29T11:49:05.480Z,1.53
2018-06-29T11:51:34.607Z,1.43
2018-06-29T11:54:03.848Z,1.40
2018-06-29T11:56:32.986Z,1.43
2018-06-29T11:59:02.079Z,1.60
2018-06-29T12:01:31.280Z,1.37
2018-06-29T12:04:07.024Z,1.70
2018-06-29T12:06:36.334Z,1.53
2018-06-29T12:09:09.188Z,1.43
2018-06-29T12:11:38.361Z,1.70
2018-06-29T12:14:07.508Z,1.67
2018-06-29T12:16:36.715Z,1.57
2018-06-29T12:19:05.894Z,1.40
2018-06-29T12:21:35.089Z,4.83
2018-06-29T12:24:04.210Z,1.83
2018-06-29T12:26:33.357Z,1.60
2018-06-29T12:29:02.494Z,1.50
2018-06-29T12:31:31.637Z,1.57
2018-06-29T12:34:00.794Z,1.30
2018-06-29T12:36:30.061Z,1.70
2018-06-29T12:38:59.191Z,1.70
2018-06-29T12:41:28.451Z,1.47
2018-06-29T12:43:57.585Z,1.60
2018-06-29T12:46:26.678Z,1.80
2018-06-29T12:48:55.779Z,1.70
2018-06-29T12:51:24.967Z,2.00
2018-06-29T12:53:54.055Z,1.70
2018-06-29T12:56:23.167Z,2.27
2018-06-29T12:58:52.483Z,1.87
2018-06-29T13:01:21.678Z,2.00
2018-06-29T13:03:50.793Z,1.57
2018-06-29T13:06:20.007Z,1.60
2018-06-29T13:08:49.145Z,1.70
2018-06-29T13:11:18.377Z,1.57
2018-06-29T13:13:47.557Z,1.57
2018-06-29T13:16:16.727Z,1.97
2018-06-29T13:18:45.940Z,1.67
2018-06-29T13:21:15.055Z,1.20
2018-06-29T13:23:44.217Z,1.50
2018-06-29T13:26:13.354Z,1.47
2018-06-29T13:28:42.445Z,1.33
2018-06-29T13:31:11.661Z,1.93
2018-06-29T13:33:40.847Z,2.23
2018-06-29T13:36:09.978Z,2.17
2018-06-29T13:38:39.110Z,1.40
2018-06-29T13:41:08.234Z,1.70
2018-06-29T13:43:37.525Z,1.50
2018-06-29T13:46:06.718Z,2.20
2018-06-29T13:48:35.825Z,1.73
2018-06-29T13:51:05.032Z,1.20
2018-06-29T13:53:34.299Z,1.27
2018-06-29T13:56:03.549Z,1.10
2018-06-29T13:58:32.826Z,2.00
2018-06-29T14:01:02.013Z,1.40
2018-06-29T14:03:31.154Z,1.43
2018-06-29T14:06:00.330Z,1.80
2018-06-29T14:08:29.451Z,1.80
2018-06-29T14:10:58.645Z,2.10
2018-06-29T14:13:27.936Z,1.77
2018-06-29T14:15:57.112Z,2.27
2018-06-29T14:18:26.279Z,1.90
2018-06-29T14:20:55.438Z,1.93
2018-06-29T14:23:24.750Z,2.00
2018-06-29T14:25:53.929Z,1.80
2018-06-29T14:28:23.192Z,3.10
2018-06-29T14:30:52.420Z,2.67
2018-06-29T14:33:21.746Z,1.80
2018-06-29T14:35:50.882Z,1.50
2018-06-29T14:38:20.042Z,1.80
2018-06-29T14:40:49.201Z,1.67
2018-06-29T14:43:18.379Z,1.80
2018-06-29T14:45:47.598Z,1.13
2018-06-29T14:48:16.798Z,2.60
2018-06-29T14:50:46.026Z,1.90
2018-06-29T14:53:15.155Z,1.87
2018-06-29T14:55:44.254Z,1.80
2018-06-29T14:58:13.440Z,1.10
2018-06-29T15:00:42.583Z,1.30
2018-06-29T15:03:11.723Z,1.60
2018-06-29T15:05:40.875Z,1.53
2018-06-29T15:08:10.032Z,1.43
2018-06-29T15:10:39.168Z,1.20
2018-06-29T15:13:08.327Z,1.00
2018-06-29T15:15:37.835Z,3.00
2018-06-29T15:18:07.588Z,3.60
2018-06-29T15:20:36.809Z,2.10
2018-06-29T15:23:06.329Z,1.77
2018-06-29T15:25:35.872Z,1.80
2018-06-29T15:28:05.969Z,2.20
2018-06-29T15:30:35.292Z,1.87
2018-06-29T15:33:04.526Z,1.60
2018-06-29T15:35:33.652Z,1.80
2018-06-29T15:38:02.820Z,2.20
2018-06-29T15:40:31.950Z,1.67
2018-06-29T15:43:01.461Z,1.70
2018-06-29T15:45:30.732Z,2.07
2018-06-29T15:47:59.908Z,2.63
2018-06-29T15:50:29.076Z,2.80
2018-06-29T15:52:58.229Z,3.17
2018-06-29T15:55:27.447Z,3.00
2018-06-29T15:57:56.569Z,3.30
2018-06-29T16:00:25.726Z,3.10
2018-06-29T16:02:54.846Z,2.90
2018-06-29T16:05:24.038Z,3.20
2018-06-29T16:07:53.518Z,3.53
2018-06-29T16:10:22.702Z,3.10
2018-06-29T16:12:52.170Z,3.00
2018-06-29T16:15:21.329Z,3.13
2018-06-29T16:17:50.547Z,3.13
2018-06-29T16:20:19.838Z,3.73
2018-06-29T16:22:48.985Z,4.00
2018-06-29T16:25:18.171Z,3.73
2018-06-29T16:27:47.474Z,3.47
2018-06-29T16:30:16.882Z,3.73
2018-06-29T16:32:45.970Z,3.80
2018-06-29T16:35:15.144Z,4.53
2018-06-29T16:37:44.830Z,3.33
2018-06-29T16:40:13.970Z,2.97
2018-06-29T16:42:43.169Z,3.10
2018-06-29T16:45:12.483Z,2.90
2018-06-29T16:47:42.140Z,2.70
2018-06-29T16:50:11.776Z,2.33
2018-06-29T16:52:40.983Z,2.67
2018-06-29T16:55:10.196Z,2.57
2018-06-29T16:57:39.341Z,2.63
2018-06-29T17:00:08.953Z,2.67
2018-06-29T17:02:38.377Z,2.33
2018-06-29T17:05:07.590Z,3.00
2018-06-29T17:07:36.717Z,2.30
2018-06-29T17:10:05.973Z,2.90
2018-06-29T17:12:35.087Z,3.30
2018-06-29T17:15:04.272Z,2.53
2018-06-29T17:17:33.458Z,2.60
2018-06-29T17:20:02.682Z,2.70
2018-06-29T17:22:31.847Z,2.63
2018-06-29T17:25:01.054Z,3.23
2018-06-29T17:27:31.942Z,2.70
2018-06-29T17:30:01.087Z,2.63
2018-06-29T17:32:30.218Z,2.97
2018-06-29T17:35:02.336Z,2.90
2018-06-29T17:37:33.819Z,3.13
2018-06-29T17:40:03.963Z,3.57
2018-06-29T17:42:34.053Z,3.10
2018-06-29T17:45:04.885Z,3.63
2018-06-29T17:47:35.561Z,2.40
2018-06-29T17:50:07.520Z,2.90
2018-06-29T17:52:39.126Z,3.27
2018-06-29T17:55:08.283Z,3.27
2018-06-29T17:57:37.464Z,3.10
2018-06-29T18:00:07.342Z,3.50
2018-06-29T18:02:36.542Z,3.40
2018-06-29T18:05:05.843Z,3.20
2018-06-29T18:07:35.331Z,3.40
2018-06-29T18:10:04.866Z,2.63
2018-06-29T18:12:34.269Z,2.80
2018-06-29T18:15:03.636Z,3.50
2018-06-29T18:17:33.317Z,3.20
2018-06-29T18:20:02.864Z,3.40
2018-06-29T18:22:32.350Z,3.37
2018-06-29T18:25:01.492Z,3.80
2018-06-29T18:27:30.710Z,3.37
2018-06-29T18:29:59.852Z,3.00
2018-06-29T18:32:29.159Z,4.27
2018-06-29T18:34:58.347Z,3.37
2018-06-29T18:37:27.569Z,2.90
2018-06-29T18:39:56.685Z,2.50
2018-06-29T18:42:25.846Z,2.70
2018-06-29T18:44:55.228Z,2.30
2018-06-29T18:47:24.427Z,3.37
2018-06-29T18:49:53.587Z,2.57
2018-06-29T18:52:22.725Z,2.53
2018-06-29T18:54:51.836Z,2.60
2018-06-29T18:57:21.014Z,2.17
2018-06-29T18:59:50.152Z,3.03
2018-06-29T19:02:19.397Z,2.83
2018-06-29T19:04:48.584Z,2.90
2018-06-29T19:07:17.748Z,3.03
2018-06-29T19:09:46.879Z,2.93
2018-06-29T19:12:16.057Z,2.63
2018-06-29T19:14:45.185Z,2.43
2018-06-29T19:17:14.457Z,2.63
2018-06-29T19:19:43.582Z,2.10
2018-06-29T19:22:12.866Z,2.10
2018-06-29T19:24:42.139Z,2.30
2018-06-29T19:27:11.348Z,2.73
2018-06-29T19:29:40.529Z,2.50
2018-06-29T19:32:09.831Z,2.30
2018-06-29T19:34:38.981Z,3.47
2018-06-29T19:37:08.145Z,3.00
2018-06-29T19:39:37.388Z,2.70
2018-06-29T19:42:06.565Z,2.60
2018-06-29T19:44:35.719Z,1.80
2018-06-29T19:47:04.924Z,2.40
2018-06-29T19:49:34.101Z,1.97
2018-06-29T19:52:03.261Z,1.80
2018-06-29T19:54:32.417Z,1.70
2018-06-29T19:57:01.570Z,2.70
2018-06-29T19:59:30.715Z,2.40
2018-06-29T20:02:01.149Z,3.10
2018-06-29T20:04:31.479Z,2.90
2018-06-29T20:07:02.028Z,1.63
2018-06-29T20:09:31.283Z,2.60
2018-06-29T20:12:02.895Z,1.90
2018-06-29T20:14:32.150Z,2.57
2018-06-29T20:17:03.449Z,2.60
2018-06-29T20:19:33.266Z,2.40
2018-06-29T20:22:02.490Z,1.73
2018-06-29T20:24:33.278Z,1.97
2018-06-29T20:27:04.347Z,2.53
2018-06-29T20:29:33.937Z,1.60
2018-06-29T20:32:05.450Z,1.53
2018-06-29T20:34:36.429Z,1.93
2018-06-29T20:37:07.371Z,1.70
2018-06-29T20:39:37.052Z,1.63
2018-06-29T20:42:06.417Z,1.60
2018-06-29T20:44:36.767Z,1.70
2018-06-29T20:47:06.820Z,1.80
2018-06-29T20:49:36.471Z,1.40
2018-06-29T20:52:07.295Z,1.67
2018-06-29T20:54:37.080Z,1.87
2018-06-29T20:57:09.214Z,1.40
2018-06-29T20:59:38.490Z,1.47
2018-06-29T21:02:09.791Z,1.53
2018-06-29T21:04:40.820Z,1.70
2018-06-29T21:07:12.732Z,1.77
2018-06-29T21:09:46.544Z,1.43
2018-06-29T21:12:15.739Z,1.70
2018-06-29T21:14:45.153Z,1.57
2018-06-29T21:17:15.205Z,1.60
2018-06-29T21:19:45.773Z,1.40
2018-06-29T21:22:17.131Z,1.30
2018-06-29T21:24:48.720Z,1.30
2018-06-29T21:27:20.936Z,1.53
2018-06-29T21:29:50.255Z,1.67
2018-06-29T21:32:21.170Z,1.47
2018-06-29T21:34:52.859Z,1.57
2018-06-29T21:37:24.040Z,1.43
2018-06-29T21:39:54.457Z,1.73
2018-06-29T21:42:23.641Z,1.83
2018-06-29T21:44:55.704Z,2.00
2018-06-29T21:47:25.391Z,1.60
2018-06-29T21:49:55.674Z,1.60
2018-06-29T21:52:26.500Z,2.00
2018-06-29T21:54:57.790Z,1.70
2018-06-29T21:57:26.946Z,1.87
2018-06-29T21:59:56.827Z,1.97
2018-06-29T22:02:27.399Z,1.80
2018-06-29T22:04:59.223Z,1.93
2018-06-29T22:07:30.756Z,1.93
2018-06-29T22:09:59.996Z,1.67
2018-06-29T22:12:31.242Z,1.30
2018-06-29T22:15:00.899Z,2.00
2018-06-29T22:17:31.801Z,1.50
2018-06-29T22:20:02.095Z,1.77
2018-06-29T22:22:33.292Z,1.93
2018-06-29T22:25:02.986Z,1.73
2018-06-29T22:27:33.096Z,1.93
2018-06-29T22:30:03.545Z,1.70
2018-06-29T22:32:33.436Z,1.80
2018-06-29T22:35:03.493Z,1.40
2018-06-29T22:37:32.696Z,1.60
2018-06-29T22:40:04.575Z,1.90
2018-06-29T22:42:36.764Z,1.33
2018-06-29T22:45:10.657Z,1.70
2018-06-29T22:47:40.210Z,1.50
2018-06-29T22:50:11.827Z,1.47
2018-06-29T22:52:42.174Z,1.40
2018-06-29T22:55:13.316Z,1.43
2018-06-29T22:57:44.458Z,1.30
2018-06-29T23:00:14.322Z,1.60
2018-06-29T23:02:46.311Z,1.70
2018-06-29T23:05:17.471Z,1.50
2018-06-29T23:07:47.679Z,1.63
2018-06-29T23:10:18.374Z,2.00
2018-06-29T23:12:49.324Z,1.97
2018-06-29T23:15:19.195Z,1.20
2018-06-29T23:17:49.701Z,1.23
2018-06-29T23:20:20.386Z,1.43
2018-06-29T23:22:49.627Z,1.23
2018-06-29T23:25:20.059Z,1.17
2018-06-29T23:27:50.500Z,1.03
2018-06-29T23:30:21.356Z,1.40
2018-06-29T23:32:51.546Z,1.70
2018-06-29T23:35:21.199Z,1.27
2018-06-29T23:37:53.111Z,1.30
2018-06-29T23:40:22.761Z,1.53
2018-06-29T23:42:53.162Z,1.70
2018-06-29T23:45:22.714Z,1.50
2018-06-29T23:47:53.635Z,1.70
2018-06-29T23:50:23.968Z,1.17
2018-06-29T23:52:56.055Z,1.07
2018-06-29T23:55:28.513Z,1.77
2018-06-29T23:57:58.001Z,1.13
